LFMLLFKC

Guest
Details From LFML - Marseille Provence
To LFKC - St Catherine
Flight Number -
Tags generated
Created
Modified
Stats Distance 167 nm / 309 km
Max Altitude 21,100 ft / 6,431 m
Waypoints 3
Social Downloads 3
Likes 0
Share VATSIM

Download

Looking for another format? Having issues loading an existing format? Contact us
Advertisement - Login to hide

Notes

Basic altitude profile: - Ascent Rate: 2500ft/min - Ascent Speed: 250kts - Cruise Altitude: 35000ft - Cruise Speed: 420kts - Descent Rate: 1500ft/min - Descent Speed: 250kts

Route

LFML STP LFKC

ID Type Via Altitude Latitude Longitude Leg Dist Tot Dist Heading (true) Name
O LFML APT - 0 ft / 0 m 43.43589˚ 5.21328˚ - 0 nm - Marseille Provence
STP VOR - 21,100 ft / 6,431 m 43.21947˚ 6.60181˚ 62 nm 62 nm 102° / 103° SAINT TROPEZ VOR-DME
O LFKC APT - 0 ft / 0 m 42.53076˚ 8.79293˚ 104 nm 166 nm 112° / 114° St Catherine

Altitude Profile

Advertisement - Login to hide

Weather


0- 5 10 15 20 25 30 35+ Temperature / ° C

Clouds and Precipitation
Forecast for 2017-12-16 18:00 UTC. Updated 2 hours ago

Ground ~20,000 ft ~40,000 ft Winds

LFML

Details ICAO LFML (MRS)
Name Marseille Provence
Region France
Timezone Europe/Paris (UTC+1.0)
Stats Elevation 74 ft / 23 m (AMSL)
Location 43.435892° 5.213282°
Runways 2
Magnetic Variation 1.553° E

METAR

LFML 161900Z AUTO 29015KT CAVOK 06/M00 Q1017 TEMPO 32027G37KT

Decode

TAF

TAF AMD LFML 161708Z 1617/1721 30023KT CAVOK TEMPO 1617/1620 31025G35KT TEMPO 1620/1713 32027G37KT PROB40 TEMPO 1713/1718 33030G40KT TEMPO 1718/1721 34023G33KT TX09/1712Z TN04/1706Z

Decode

Departure Runways

ID Width Length Bearing (true) Bearing (mag) Surface Threshold Offset Overrun Length
13L 148 ft / 45 m 11,478 ft / 3,499 m 133.99° 132.44° Asphalt 1,115 ft / 340 m 0 ft / 0 m
13R 148 ft / 45 m 7,981 ft / 2,433 m 134.90° 133.35° Asphalt 0 ft / 0 m 0 ft / 0 m
31L 148 ft / 45 m 7,981 ft / 2,433 m 314.91° 313.36° Asphalt 344 ft / 105 m 0 ft / 0 m
31R 148 ft / 45 m 11,478 ft / 3,499 m 314.01° 312.46° Asphalt 2,165 ft / 660 m 0 ft / 0 m

LFKC

Details ICAO LFKC (CLY)
Name St Catherine
Region France
Timezone Europe/Paris (UTC+1.0)
Stats Elevation 208 ft / 63 m (AMSL)
Location 42.530762° 8.792925°
Runways 1
Magnetic Variation 2.342° E

METAR

LFKC 161900Z AUTO 20006KT 170V240 9999 FEW054 SCT066 05/01 Q1012 NOSIG

Decode

TAF

TAF LFKC 161901Z 1619/1715 CNL

Decode

Destination Runways

ID Width Length Bearing (true) Bearing (mag) Surface Threshold Offset Overrun Length
18 131 ft / 40 m 7,596 ft / 2,315 m 179.60° 177.26° Concrete 0 ft / 0 m 0 ft / 0 m
36 131 ft / 40 m 7,596 ft / 2,315 m 359.60° 357.26° Concrete 656 ft / 200 m 0 ft / 0 m

Approach Navaids

Runway Type Ident Frequency Range Bearing (true) Bearing (mag) Slope Elevation
18 Localiser CLI 109.50 MHz 18 nm / 33 km 179.62° 177.27° - 230 ft / 70 m (AMSL)
18 DME CLI 109.50 MHz 18 nm / 33 km - - - 230 ft / 70 m (AMSL)

Popular Alternatives